createdAt,value
2024-02-23T00:01:01.618Z,66.40
2024-02-23T00:03:28.055Z,66.01
2024-02-23T00:05:54.464Z,66.10
2024-02-23T00:08:21.044Z,65.96
2024-02-23T00:10:47.660Z,66.39
2024-02-23T00:13:14.260Z,66.34
2024-02-23T00:15:40.722Z,66.21
2024-02-23T00:18:07.959Z,66.00
2024-02-23T00:20:34.499Z,66.25
2024-02-23T00:23:01.014Z,66.05
2024-02-23T00:25:27.683Z,65.95
2024-02-23T00:27:54.118Z,66.17
2024-02-23T00:30:20.785Z,66.09
2024-02-23T00:32:47.399Z,66.34
2024-02-23T00:35:13.926Z,66.03
2024-02-23T00:37:40.407Z,65.85
2024-02-23T00:40:07.623Z,66.08
2024-02-23T00:42:34.076Z,65.80
2024-02-23T00:45:00.528Z,66.21
2024-02-23T00:47:28.205Z,65.78
2024-02-23T00:49:55.070Z,65.79
2024-02-23T00:52:21.670Z,65.79
2024-02-23T00:54:48.690Z,65.84
2024-02-23T00:57:15.135Z,65.82
2024-02-23T00:59:41.565Z,65.77
2024-02-23T01:02:08.042Z,65.84
2024-02-23T01:04:34.447Z,65.78
2024-02-23T01:07:01.181Z,65.61
2024-02-23T01:09:27.681Z,65.87
2024-02-23T01:11:54.461Z,65.95
2024-02-23T01:14:21.077Z,66.02
2024-02-23T01:16:47.683Z,66.15
2024-02-23T01:19:14.595Z,66.06
2024-02-23T01:21:44.066Z,65.73
2024-02-23T01:24:10.553Z,66.09
2024-02-23T01:26:39.938Z,66.07
2024-02-23T01:29:09.207Z,65.97
2024-02-23T01:31:35.661Z,65.45
2024-02-23T01:34:02.217Z,66.00
2024-02-23T01:36:28.701Z,65.63
2024-02-23T01:38:56.131Z,65.80
2024-02-23T01:41:22.605Z,65.96
2024-02-23T01:43:50.784Z,65.64
2024-02-23T01:46:19.742Z,65.79
2024-02-23T01:48:46.860Z,65.78
2024-02-23T01:51:14.065Z,65.81
2024-02-23T01:53:41.203Z,65.71
2024-02-23T01:56:07.809Z,65.70
2024-02-23T01:58:37.959Z,65.87
2024-02-23T02:01:04.728Z,65.67
2024-02-23T02:03:31.172Z,65.51
2024-02-23T02:05:59.629Z,65.60
2024-02-23T02:08:35.892Z,65.83
2024-02-23T02:11:02.510Z,65.83
2024-02-23T02:13:29.603Z,65.45
2024-02-23T02:15:56.196Z,65.59
2024-02-23T02:18:22.849Z,65.61
2024-02-23T02:20:58.456Z,65.49
2024-02-23T02:23:25.964Z,65.87
2024-02-23T02:25:59.662Z,65.49
2024-02-23T02:28:27.159Z,65.42
2024-02-23T02:30:54.159Z,65.46
2024-02-23T02:33:21.136Z,65.58
2024-02-23T02:35:47.631Z,65.51
2024-02-23T02:38:14.303Z,65.55
2024-02-23T02:40:40.800Z,65.71
2024-02-23T02:43:08.087Z,65.76
2024-02-23T02:45:34.753Z,65.54
2024-02-23T02:48:04.873Z,65.70
2024-02-23T02:50:32.001Z,65.24
2024-02-23T02:52:58.512Z,65.44
2024-02-23T02:55:24.964Z,65.72
2024-02-23T02:57:51.365Z,65.33
2024-02-23T03:00:17.948Z,65.31
2024-02-23T03:02:44.440Z,65.28
2024-02-23T03:05:11.039Z,65.62
2024-02-23T03:07:37.565Z,65.65
2024-02-23T03:10:04.606Z,65.38
2024-02-23T03:12:31.074Z,65.47
2024-02-23T03:14:57.846Z,65.52
2024-02-23T03:17:24.537Z,65.23
2024-02-23T03:19:53.881Z,65.17
2024-02-23T03:22:20.586Z,65.34
2024-02-23T03:24:47.080Z,65.45
2024-02-23T03:27:14.886Z,65.54
2024-02-23T03:29:41.676Z,65.25
2024-02-23T03:32:08.718Z,65.29
2024-02-23T03:34:35.590Z,65.20
2024-02-23T03:37:03.781Z,65.56
2024-02-23T03:39:30.652Z,64.99
2024-02-23T03:41:57.137Z,65.10
2024-02-23T03:44:23.651Z,65.45
2024-02-23T03:46:50.794Z,65.50
2024-02-23T03:49:17.613Z,64.91
2024-02-23T03:51:44.249Z,65.26
2024-02-23T03:54:10.736Z,65.05
2024-02-23T03:56:42.178Z,65.12
2024-02-23T03:59:10.565Z,64.98
2024-02-23T04:01:38.140Z,65.13
2024-02-23T04:04:05.390Z,65.30
2024-02-23T04:06:32.129Z,65.17
2024-02-23T04:08:58.702Z,65.16
2024-02-23T04:11:25.291Z,64.90
2024-02-23T04:13:52.986Z,65.08
2024-02-23T04:16:23.183Z,65.36
2024-02-23T04:18:49.829Z,65.18
2024-02-23T04:21:16.553Z,65.01
2024-02-23T04:23:44.455Z,65.20
2024-02-23T04:26:11.005Z,64.78
2024-02-23T04:28:41.592Z,65.36
2024-02-23T04:31:09.537Z,65.40
2024-02-23T04:33:37.381Z,65.14
2024-02-23T04:36:04.754Z,64.93
2024-02-23T04:38:32.313Z,65.05
2024-02-23T04:40:59.330Z,65.09
2024-02-23T04:43:26.376Z,65.17
2024-02-23T04:45:53.166Z,65.06
2024-02-23T04:48:19.727Z,64.82
2024-02-23T04:50:46.241Z,64.90
2024-02-23T04:53:12.844Z,65.15
2024-02-23T04:55:39.307Z,64.81
2024-02-23T04:58:05.880Z,64.77
2024-02-23T05:00:34.617Z,65.02
2024-02-23T05:03:04.322Z,64.94
2024-02-23T05:05:31.781Z,64.89
2024-02-23T05:07:58.723Z,64.91
2024-02-23T05:10:25.155Z,65.12
2024-02-23T05:12:51.739Z,64.71
2024-02-23T05:15:18.161Z,64.94
2024-02-23T05:17:46.793Z,64.75
2024-02-23T05:20:13.879Z,64.70
2024-02-23T05:22:41.416Z,64.85
2024-02-23T05:25:08.768Z,64.99
2024-02-23T05:27:35.343Z,64.97
2024-02-23T05:30:02.183Z,64.85
2024-02-23T05:32:28.731Z,64.91
2024-02-23T05:34:55.373Z,65.01
2024-02-23T05:37:21.980Z,64.63
2024-02-23T05:39:48.606Z,64.79
2024-02-23T05:42:15.022Z,64.76
2024-02-23T05:44:45.176Z,65.02
2024-02-23T05:47:12.072Z,64.62
2024-02-23T05:49:38.545Z,64.89
2024-02-23T05:52:05.047Z,64.58
2024-02-23T05:54:31.675Z,64.64
2024-02-23T05:56:58.321Z,64.65
2024-02-23T05:59:24.797Z,64.65
2024-02-23T06:01:53.329Z,64.56
2024-02-23T06:04:19.756Z,64.49
2024-02-23T06:06:46.611Z,64.70
2024-02-23T06:09:13.305Z,64.59
2024-02-23T06:11:39.932Z,64.50
2024-02-23T06:14:07.585Z,64.90
2024-02-23T06:16:34.105Z,65.00
2024-02-23T06:19:00.704Z,64.54
2024-02-23T06:21:27.193Z,64.65
2024-02-23T06:23:54.504Z,64.31
2024-02-23T06:26:21.049Z,64.63
2024-02-23T06:28:47.457Z,64.53
2024-02-23T06:31:13.997Z,64.58
2024-02-23T06:33:41.972Z,64.66
2024-02-23T06:36:08.906Z,64.82
2024-02-23T06:38:36.258Z,64.58
2024-02-23T06:41:03.002Z,64.65
2024-02-23T06:43:29.749Z,64.76
2024-02-23T06:45:56.320Z,64.49
2024-02-23T06:48:27.690Z,64.52
2024-02-23T06:50:56.597Z,64.80
2024-02-23T06:53:23.041Z,64.49
2024-02-23T06:55:49.449Z,64.70
2024-02-23T06:58:17.696Z,64.93
2024-02-23T07:00:44.177Z,64.49
2024-02-23T07:03:10.662Z,64.41
2024-02-23T07:05:37.335Z,64.71
2024-02-23T07:08:04.336Z,64.39
2024-02-23T07:10:30.951Z,64.86
2024-02-23T07:12:59.236Z,64.46
2024-02-23T07:15:26.947Z,64.68
2024-02-23T07:17:53.770Z,64.33
2024-02-23T07:20:20.347Z,64.58
2024-02-23T07:22:47.583Z,64.59
2024-02-23T07:25:23.514Z,64.68
2024-02-23T07:27:50.362Z,64.31
2024-02-23T07:30:20.670Z,64.49
2024-02-23T07:32:51.054Z,64.18
2024-02-23T07:35:22.953Z,64.19
2024-02-23T07:37:49.474Z,64.41
2024-02-23T07:40:19.107Z,64.38
2024-02-23T07:42:47.727Z,64.57
2024-02-23T07:45:14.400Z,64.38
2024-02-23T07:47:41.041Z,64.22
2024-02-23T07:50:08.381Z,64.48
2024-02-23T07:52:34.945Z,64.36
2024-02-23T07:55:03.817Z,64.38
2024-02-23T07:57:30.833Z,64.34
2024-02-23T07:59:57.392Z,64.24
2024-02-23T08:02:23.899Z,64.01
2024-02-23T08:04:51.504Z,64.10
2024-02-23T08:07:18.096Z,64.07
2024-02-23T08:09:44.606Z,64.00
2024-02-23T08:12:12.693Z,63.90
2024-02-23T08:14:39.321Z,64.24
2024-02-23T08:17:06.223Z,63.96
2024-02-23T08:19:33.012Z,63.97
2024-02-23T08:21:59.594Z,64.12
2024-02-23T08:24:27.516Z,63.81
2024-02-23T08:26:54.932Z,63.72
2024-02-23T08:29:21.746Z,63.94
2024-02-23T08:31:49.052Z,64.09
2024-02-23T08:34:15.512Z,63.57
2024-02-23T08:36:42.058Z,64.10
2024-02-23T08:39:10.053Z,63.87
2024-02-23T08:41:37.047Z,63.57
2024-02-23T08:44:04.035Z,64.04
2024-02-23T08:46:30.629Z,63.66
2024-02-23T08:48:57.111Z,63.67
2024-02-23T08:51:23.594Z,63.60
2024-02-23T08:53:50.068Z,63.52
2024-02-23T08:56:17.345Z,63.80
2024-02-23T08:58:43.929Z,63.68
2024-02-23T09:01:10.845Z,63.69
2024-02-23T09:03:39.013Z,63.57
2024-02-23T09:06:06.253Z,63.74
2024-02-23T09:08:32.976Z,63.81
2024-02-23T09:10:59.588Z,63.69
2024-02-23T09:13:27.758Z,63.50
2024-02-23T09:15:54.273Z,63.77
2024-02-23T09:18:21.329Z,63.82
2024-02-23T09:20:48.085Z,63.50
2024-02-23T09:23:14.671Z,63.81
2024-02-23T09:25:43.924Z,63.52
2024-02-23T09:28:12.408Z,63.39
2024-02-23T09:30:39.496Z,63.54
2024-02-23T09:33:06.407Z,63.77
2024-02-23T09:35:35.667Z,63.58
2024-02-23T09:38:02.221Z,63.35
2024-02-23T09:40:28.780Z,63.59
2024-02-23T09:42:59.994Z,63.44
2024-02-23T09:45:30.673Z,63.63
2024-02-23T09:47:58.613Z,63.29
2024-02-23T09:50:25.739Z,63.45
2024-02-23T09:52:52.631Z,63.63
2024-02-23T09:55:22.147Z,63.67
2024-02-23T09:57:49.656Z,63.58
2024-02-23T10:00:18.628Z,63.33
2024-02-23T10:02:46.231Z,63.27
2024-02-23T10:05:15.405Z,63.26
2024-02-23T10:07:42.420Z,63.30
2024-02-23T10:10:10.162Z,63.24
2024-02-23T10:12:40.663Z,63.40
2024-02-23T10:15:07.875Z,63.20
2024-02-23T10:17:36.555Z,63.21
2024-02-23T10:20:05.755Z,63.47
2024-02-23T10:22:36.335Z,63.48
2024-02-23T10:25:03.312Z,63.02
2024-02-23T10:27:29.837Z,63.14
2024-02-23T10:29:56.537Z,63.32
2024-02-23T10:32:25.405Z,62.94
2024-02-23T10:34:53.971Z,62.93
2024-02-23T10:37:23.422Z,63.02
2024-02-23T10:39:55.022Z,63.38
2024-02-23T10:42:25.263Z,63.43
2024-02-23T10:44:53.219Z,63.30
2024-02-23T10:47:22.597Z,63.15
2024-02-23T10:49:52.479Z,63.00
2024-02-23T10:52:19.924Z,63.43
2024-02-23T10:54:47.618Z,63.29
2024-02-23T10:57:16.440Z,62.97
2024-02-23T10:59:47.687Z,63.30
2024-02-23T11:02:19.152Z,63.16
2024-02-23T11:04:52.778Z,63.31
2024-02-23T11:07:23.412Z,62.95
2024-02-23T11:09:53.317Z,63.25
2024-02-23T11:12:27.345Z,63.17
2024-02-23T11:14:59.029Z,63.12
2024-02-23T11:17:28.763Z,62.86
2024-02-23T11:19:58.757Z,63.18
2024-02-23T11:22:37.759Z,62.87
2024-02-23T11:25:09.537Z,62.81
2024-02-23T11:27:36.712Z,62.83
2024-02-23T11:30:06.707Z,63.13
2024-02-23T11:32:55.579Z,62.83
2024-02-23T11:35:27.001Z,62.70
2024-02-23T11:38:00.387Z,62.89
2024-02-23T11:40:27.873Z,62.89
2024-02-23T11:42:56.035Z,63.00
2024-02-23T11:45:23.116Z,63.07
2024-02-23T11:47:49.689Z,62.97
2024-02-23T11:50:17.623Z,62.91
2024-02-23T11:52:44.164Z,63.10
2024-02-23T11:55:10.731Z,63.13
2024-02-23T11:57:46.488Z,63.07
2024-02-23T12:00:15.335Z,62.60
2024-02-23T12:02:42.102Z,63.09
2024-02-23T12:05:09.288Z,63.12
2024-02-23T12:07:36.830Z,63.04
2024-02-23T12:10:05.354Z,63.07
2024-02-23T12:12:32.080Z,63.10
2024-02-23T12:15:00.118Z,62.49
2024-02-23T12:17:30.354Z,62.94
2024-02-23T12:20:04.144Z,63.00
2024-02-23T12:22:30.714Z,62.72
2024-02-23T12:25:01.080Z,62.73
2024-02-23T12:27:27.995Z,62.61
2024-02-23T12:29:55.503Z,62.85
2024-02-23T12:32:22.893Z,62.67
2024-02-23T12:34:50.134Z,62.71
2024-02-23T12:37:17.592Z,62.82
2024-02-23T12:39:44.610Z,62.74
2024-02-23T12:57:28.016Z,63.24
2024-02-23T12:59:54.451Z,63.34
2024-02-23T13:02:23.487Z,63.55
2024-02-23T13:04:50.648Z,63.35
2024-02-23T13:07:18.227Z,63.61
2024-02-23T13:09:45.550Z,63.62
2024-02-23T13:12:12.394Z,63.35
2024-02-23T13:14:39.110Z,63.84
2024-02-23T13:17:06.035Z,63.56
2024-02-23T13:19:32.642Z,63.41
2024-02-23T13:22:01.517Z,63.64
2024-02-23T13:24:28.363Z,63.65
2024-02-23T13:26:54.950Z,63.64
2024-02-23T13:29:21.839Z,63.33
2024-02-23T13:31:48.376Z,63.28
2024-02-23T13:34:17.903Z,63.80
2024-02-23T13:36:45.267Z,63.35
2024-02-23T13:39:11.846Z,63.47
2024-02-23T13:41:39.265Z,63.63
2024-02-23T13:44:06.145Z,63.35
2024-02-23T13:46:32.739Z,63.53
2024-02-23T13:49:08.371Z,63.21
2024-02-23T13:51:35.247Z,63.09
2024-02-23T13:57:41.868Z,63.12
2024-02-23T14:00:13.811Z,63.13
2024-02-23T14:02:43.386Z,63.13
2024-02-23T14:05:10.000Z,63.28
2024-02-23T14:07:36.927Z,63.12
2024-02-23T14:10:04.282Z,62.87
2024-02-23T14:12:31.479Z,63.41
2024-02-23T14:14:57.948Z,63.29
2024-02-23T14:17:24.686Z,63.30
2024-02-23T14:19:52.039Z,62.84
2024-02-23T14:22:18.927Z,62.96
2024-02-23T14:24:45.482Z,63.42
2024-02-23T14:27:12.326Z,62.84
2024-02-23T14:29:38.961Z,63.15
2024-02-23T14:32:05.629Z,63.28
2024-02-23T14:34:34.479Z,63.13
2024-02-23T14:37:01.144Z,63.24
2024-02-23T14:39:27.668Z,63.23
2024-02-23T14:41:54.466Z,62.91
2024-02-23T14:44:21.080Z,62.97
2024-02-23T14:46:47.673Z,62.96
2024-02-23T14:49:14.429Z,63.29
2024-02-23T14:51:44.211Z,62.88
2024-02-23T14:54:18.471Z,62.91
2024-02-23T14:56:45.224Z,63.29
2024-02-23T14:59:11.788Z,63.01
2024-02-23T15:01:39.373Z,63.05
2024-02-23T15:04:06.497Z,63.01
2024-02-23T15:06:32.990Z,63.33
2024-02-23T15:08:59.587Z,63.24
2024-02-23T15:11:26.420Z,62.97
2024-02-23T15:13:58.511Z,62.98
2024-02-23T15:16:33.720Z,62.94
2024-02-23T15:19:00.568Z,63.17
2024-02-23T15:21:28.208Z,63.30
2024-02-23T15:23:55.634Z,63.24
2024-02-23T15:26:22.381Z,63.35
2024-02-23T15:28:48.913Z,63.08
2024-02-23T15:31:15.785Z,63.30
2024-02-23T15:33:44.695Z,63.01
2024-02-23T15:36:11.311Z,63.02
2024-02-23T15:38:38.440Z,63.22
2024-02-23T15:41:05.875Z,63.42
2024-02-23T15:43:32.682Z,63.26
2024-02-23T15:45:59.290Z,63.01
2024-02-23T15:48:26.813Z,63.23
2024-02-23T15:51:10.122Z,63.41
2024-02-23T15:53:40.627Z,63.02
2024-02-23T15:56:07.368Z,63.28
2024-02-23T15:58:33.902Z,63.26
2024-02-23T16:01:00.406Z,63.64
2024-02-23T16:03:27.012Z,63.07
2024-02-23T16:05:53.697Z,63.29
2024-02-23T16:08:40.107Z,63.34
2024-02-23T16:11:06.762Z,63.12
2024-02-23T16:13:33.327Z,63.38
2024-02-23T16:16:00.131Z,63.00
2024-02-23T16:18:26.658Z,63.10
2024-02-23T16:20:54.083Z,63.20
2024-02-23T16:23:20.642Z,63.03
2024-02-23T16:25:47.102Z,62.93
2024-02-23T16:28:13.654Z,63.24
2024-02-23T16:30:41.237Z,63.43
2024-02-23T16:33:08.672Z,63.34
2024-02-23T16:35:35.359Z,63.53
2024-02-23T16:38:02.147Z,63.49
2024-02-23T16:40:31.578Z,63.53
2024-02-23T16:42:58.779Z,63.39
2024-02-23T16:45:28.200Z,63.44
2024-02-23T16:47:55.906Z,63.25
2024-02-23T16:50:22.498Z,63.63
2024-02-23T16:52:49.882Z,63.30
2024-02-23T16:55:19.688Z,63.34
2024-02-23T16:57:46.156Z,63.27
2024-02-23T17:00:13.306Z,63.67
2024-02-23T17:02:39.914Z,63.32
2024-02-23T17:05:06.769Z,63.56
2024-02-23T17:07:33.363Z,63.29
2024-02-23T17:09:59.958Z,63.77
2024-02-23T17:12:28.400Z,63.50
2024-02-23T17:14:55.093Z,63.30
2024-02-23T17:17:22.000Z,63.33
2024-02-23T17:19:48.562Z,63.48
2024-02-23T17:22:15.055Z,63.28
2024-02-23T17:24:41.856Z,63.56
2024-02-23T17:27:10.044Z,63.36
2024-02-23T17:29:36.653Z,63.75
2024-02-23T17:32:03.292Z,63.76
2024-02-23T17:34:29.871Z,63.70
2024-02-23T17:36:56.444Z,63.83
2024-02-23T17:39:24.429Z,63.71
2024-02-23T17:41:51.079Z,63.60
2024-02-23T17:44:18.925Z,63.50
2024-02-23T17:46:48.741Z,63.67
2024-02-23T17:49:20.528Z,63.58
2024-02-23T17:51:47.134Z,63.69
2024-02-23T17:54:13.807Z,63.33
2024-02-23T17:56:40.343Z,63.65
2024-02-23T17:59:06.854Z,63.72
2024-02-23T18:01:36.169Z,63.82
2024-02-23T18:04:03.460Z,63.73
2024-02-23T18:06:32.398Z,63.64
2024-02-23T18:08:59.044Z,63.54
2024-02-23T18:11:25.831Z,63.56
2024-02-23T18:13:53.046Z,63.71
2024-02-23T18:16:23.176Z,63.82
2024-02-23T18:18:51.923Z,63.58
2024-02-23T18:21:18.733Z,63.83
2024-02-23T18:23:45.495Z,63.76
2024-02-23T18:26:15.582Z,63.84
2024-02-23T18:28:42.451Z,63.47
2024-02-23T18:31:09.353Z,63.51
2024-02-23T18:33:35.936Z,63.70
2024-02-23T18:36:02.716Z,63.62
2024-02-23T18:38:29.230Z,63.34
2024-02-23T18:40:55.907Z,63.54
2024-02-23T18:43:22.319Z,63.71
2024-02-23T18:45:48.786Z,63.59
2024-02-23T18:48:18.441Z,63.84
2024-02-23T18:50:44.933Z,63.58
2024-02-23T18:53:11.508Z,63.78
2024-02-23T18:55:38.996Z,63.52
2024-02-23T18:58:10.554Z,63.53
2024-02-23T19:00:37.122Z,63.64
2024-02-23T19:03:04.574Z,63.68
2024-02-23T19:05:31.628Z,63.60
2024-02-23T19:07:58.184Z,63.51
2024-02-23T19:10:25.021Z,63.40
2024-02-23T19:12:51.673Z,63.28
2024-02-23T19:15:18.155Z,63.60
2024-02-23T19:17:44.846Z,63.77
2024-02-23T19:20:11.788Z,63.61
2024-02-23T19:22:39.160Z,63.37
2024-02-23T19:25:13.967Z,63.50
2024-02-23T19:27:41.594Z,63.80
2024-02-23T19:30:13.508Z,63.76
2024-02-23T19:32:52.466Z,63.42
2024-02-23T19:35:19.037Z,63.48
2024-02-23T19:37:45.590Z,63.61
2024-02-23T19:40:14.440Z,63.54
2024-02-23T19:42:40.882Z,63.56
2024-02-23T19:45:07.802Z,63.65
2024-02-23T19:47:34.895Z,63.27
2024-02-23T19:50:01.563Z,63.66
2024-02-23T19:52:30.520Z,63.62
2024-02-23T19:54:57.096Z,63.37
2024-02-23T19:57:26.668Z,63.52
2024-02-23T19:59:54.294Z,63.39
2024-02-23T20:02:20.787Z,63.60
2024-02-23T20:04:53.342Z,63.34
2024-02-23T20:07:22.172Z,63.20
2024-02-23T20:09:48.828Z,63.66
2024-02-23T20:12:15.540Z,63.32
2024-02-23T20:14:42.277Z,63.32
2024-02-23T20:17:09.776Z,63.45
2024-02-23T20:19:36.379Z,63.43
2024-02-23T20:22:03.378Z,63.33
2024-02-23T20:24:30.036Z,63.50
2024-02-23T20:27:01.377Z,63.62
2024-02-23T20:29:32.099Z,63.38
2024-02-23T20:32:10.625Z,63.42
2024-02-23T20:34:42.626Z,63.30
2024-02-23T20:37:09.801Z,63.61
2024-02-23T20:39:36.256Z,63.35
2024-02-23T20:42:03.708Z,63.24
2024-02-23T20:44:30.427Z,63.27
2024-02-23T20:46:59.762Z,63.48
2024-02-23T20:49:27.463Z,63.27
2024-02-23T20:51:57.301Z,63.58
2024-02-23T20:54:24.061Z,63.61
2024-02-23T20:56:50.595Z,63.53
2024-02-23T20:59:17.262Z,63.21
2024-02-23T21:01:43.757Z,63.42
2024-02-23T21:04:10.387Z,63.51
2024-02-23T21:06:37.772Z,63.36
2024-02-23T21:09:04.732Z,63.57
2024-02-23T21:11:31.354Z,63.35
2024-02-23T21:13:58.948Z,63.52
2024-02-23T21:16:25.463Z,63.48
2024-02-23T21:18:52.003Z,63.24
2024-02-23T21:21:21.429Z,63.16
2024-02-23T21:23:49.605Z,63.31
2024-02-23T21:26:16.614Z,63.36
2024-02-23T21:28:48.471Z,63.14
2024-02-23T21:31:15.119Z,63.46
2024-02-23T21:33:41.974Z,63.49
2024-02-23T21:36:08.562Z,63.27
2024-02-23T21:38:35.882Z,63.18
2024-02-23T21:41:02.667Z,63.55
2024-02-23T21:43:29.238Z,63.38
2024-02-23T21:45:55.826Z,63.40
2024-02-23T21:48:22.318Z,63.18
2024-02-23T21:50:48.918Z,63.49
2024-02-23T21:53:15.497Z,63.29
2024-02-23T21:55:41.988Z,63.34
2024-02-23T21:58:08.563Z,63.49
2024-02-23T22:00:35.115Z,63.37
2024-02-23T22:03:04.062Z,63.37
2024-02-23T22:05:31.043Z,63.10
2024-02-23T22:07:58.183Z,63.60
2024-02-23T22:10:24.710Z,63.32
2024-02-23T22:12:51.197Z,63.31
2024-02-23T22:15:17.858Z,63.47
2024-02-23T22:17:44.533Z,63.43
2024-02-23T22:20:11.270Z,63.10
2024-02-23T22:22:37.875Z,63.35
2024-02-23T22:25:04.997Z,63.31
2024-02-23T22:27:31.622Z,63.56
2024-02-23T22:30:00.930Z,63.08
2024-02-23T22:32:29.181Z,63.38
2024-02-23T22:34:56.172Z,63.15
2024-02-23T22:37:22.681Z,63.57
2024-02-23T22:39:49.258Z,63.09
2024-02-23T22:42:15.819Z,63.55
2024-02-23T22:44:42.476Z,63.38
2024-02-23T22:47:09.010Z,63.38
2024-02-23T22:49:38.630Z,63.48
2024-02-23T22:52:05.750Z,63.37
2024-02-23T22:54:32.268Z,63.24
2024-02-23T22:56:58.904Z,63.35
2024-02-23T22:59:25.388Z,63.36
2024-02-23T23:01:52.013Z,63.23
2024-02-23T23:04:18.712Z,63.30
2024-02-23T23:06:45.718Z,63.34
2024-02-23T23:09:13.327Z,63.37
2024-02-23T23:11:40.853Z,63.03
2024-02-23T23:14:08.307Z,63.40
2024-02-23T23:16:35.061Z,63.29
2024-02-23T23:19:01.970Z,63.19
2024-02-23T23:21:28.723Z,63.47
2024-02-23T23:23:55.198Z,62.99
2024-02-23T23:26:21.917Z,63.15
2024-02-23T23:28:49.996Z,63.33
2024-02-23T23:31:17.419Z,63.47
2024-02-23T23:33:45.064Z,62.95
2024-02-23T23:36:14.138Z,62.98
2024-02-23T23:38:44.171Z,63.43
2024-02-23T23:41:10.897Z,63.31
2024-02-23T23:43:37.617Z,63.10
2024-02-23T23:46:04.938Z,63.21
2024-02-23T23:48:32.841Z,63.40
2024-02-23T23:50:59.768Z,63.27
2024-02-23T23:53:27.733Z,63.08
2024-02-23T23:55:54.414Z,63.27
2024-02-23T23:58:21.539Z,63.35
